Nearby METAR Reports

 

KBAX - Bad Axe, Michigan, USA
Distance from station: ESE 22mi, 35km
Updated: Fri, 20-Jul-2018 10:15am EDT
Clear
Clear
 Wind from ESE
Wind: ESE 13 mph , 20 km/h, Gust: 18 mph , 30 km/h
Temperature: 77°F , 25°C
Dew Point: 61°F , 16°C
Humidity: 57%
Barometer: 29.89 inHg , 1012.2 hPa
Clouds: Clear
Visibility: 10 miles , 16 km
2018/07/20 14:15 KBAX 201415Z AUTO 12011G16KT 100V170 10SM CLR 25/16 A2989 RMK AO2 T02540160
KFNT - Flint, Michigan, USA
Distance from station: SSW 68mi, 109km
Updated: Fri, 20-Jul-2018 8:53am EDT
NOT Current
Partly cloudy
Partly cloudy
 Wind from SSE
Wind: SSE 15 mph , 24 km/h
Temperature: 73°F , 23°C
Dew Point: 63°F , 17°C
Humidity: 69%
Barometer: 29.86 inHg , 1011.2 hPa
Clouds: Partly cloudy
Visibility: 10 miles , 16 km
Cloud details: Partly cloudy 12000 ft
2018/07/20 12:53 KFNT 201253Z 15013KT 10SM SCT120 23/17 A2986 RMK AO2 SLP108 T02330172
KMBS - Saginaw, Michigan, USA
Distance from station: SW 44mi, 70km
Updated: Fri, 20-Jul-2018 9:53am EDT
Mostly cloudy
Mostly cloudy
 Wind from SE
Wind: SE 10 mph , 17 km/h
Temperature: 73°F , 23°C
Dew Point: 64°F , 18°C
Humidity: 74%
Barometer: 29.87 inHg , 1011.5 hPa
Clouds: Mostly cloudy
Visibility: 10 miles , 16 km
Cloud details: Mostly cloudy 10000 ft
Mostly cloudy 12000 ft
2018/07/20 13:53 KMBS 201353Z 14009KT 10SM BKN100 BKN120 23/18 A2987 RMK AO2 LTG DSNT SW SLP109 T02330178
 
KDTW - Detroit/Wayne, Michigan, USA
Distance from station: SSE 117mi, 188km
Updated: Fri, 20-Jul-2018 9:53am EDT
Overcast
Overcast
 Wind from S
Wind: S 13 mph , 20 km/h
Temperature: 81°F , 27°C
Heat Index: 83°F , 28°C
Dew Point: 64°F , 18°C
Humidity: 58%
Barometer: 29.88 inHg , 1011.9 hPa
Clouds: Overcast
Visibility: 9 miles , 14 km
Cloud details: Partly cloudy 5500 ft
Mostly cloudy 13000 ft
Overcast 23000 ft
2018/07/20 13:53 KDTW 201353Z 18011KT 9SM SCT055 BKN130 OVC230 27/18 A2988 RMK AO2 SLP113 T02670183
KP58 - Port Hope, Michigan, USA
Distance from station: ENE 30mi, 48km
Updated: Fri, 20-Jul-2018 9:51am EDT

 Wind from ESE
Wind: ESE 15 mph , 24 km/h
Temperature: 73°F , 23°C
Dew Point: 66°F , 19°C
Humidity: 78%
Barometer: 29.88 inHg , 1011.9 hPa
2018/07/20 13:51 KP58 201351Z AUTO 12013KT 23/19 A2988 RMK AO1 SLP111 T02280189
KCFS - Caro/Tuscola, Michigan, USA
Distance from station: S 31mi, 50km
Updated: Fri, 20-Jul-2018 10:15am EDT
Partly cloudy
Partly cloudy
 Wind from ESE
Wind: ESE 7 mph , 11 km/h
Temperature: 75°F , 24°C
Dew Point: 63°F , 17°C
Humidity: 65%
Barometer: 29.87 inHg , 1011.5 hPa
Clouds: Partly cloudy
Visibility: 10 miles , 16 km
Cloud details: Partly cloudy 12000 ft
2018/07/20 14:15 KCFS 201415Z AUTO 12006KT 10SM SCT120 24/17 A2987 RMK AO2 T02430170
 
KPHN - Port Huron, Michigan, USA
Distance from station: SSE 81mi, 131km
Updated: Fri, 20-Jul-2018 10:16am EDT
Clear
Clear
 Wind from SSE
Wind: SSE 9 mph , 15 km/h
Temperature: 79°F , 26°C
Dew Point: 64°F , 18°C
Humidity: 61%
Barometer: 29.89 inHg , 1012.2 hPa
Clouds: Clear
Visibility: 10 miles , 16 km
2018/07/20 14:16 KPHN 201416Z AUTO 16008KT 10SM CLR 26/18 A2989 RMK AO2
KPTK - Pontiac, Michigan, USA
Distance from station: S 86mi, 138km
Updated: Fri, 20-Jul-2018 9:53am EDT
Mostly cloudy
Mostly cloudy
 Wind from SE
Wind: SE 12 mph , 19 km/h
Temperature: 79°F , 26°C
Dew Point: 66°F , 19°C
Humidity: 65%
Barometer: 29.87 inHg , 1011.5 hPa
Clouds: Mostly cloudy
Visibility: 10 miles , 16 km
Cloud details: Partly cloudy 9500 ft
Mostly cloudy 13000 ft
Mostly cloudy 22000 ft
2018/07/20 13:53 KPTK 201353Z 14010KT 10SM SCT095 BKN130 BKN220 26/19 A2987 RMK AO2 SLP107 T02560189
KMTC - Selfridge Angb, Michigan, USA
Distance from station: SSE 94mi, 151km
Updated: Fri, 20-Jul-2018 9:56am EDT
Mostly cloudy
Mostly cloudy
 Wind from SSE
Wind: SSE 15 mph , 24 km/h
Temperature: 79°F , 26°C
Dew Point: 70°F , 21°C
Humidity: 74%
Barometer: 29.87 inHg , 1011.5 hPa
Clouds: Mostly cloudy
Visibility: 10 miles , 16 km
Cloud details: Few Clouds 5000 ft
Partly cloudy 13000 ft
Mostly cloudy 16000 ft
Mostly cloudy 23000 ft
2018/07/20 13:56 KMTC 201356Z 15013KT 10SM FEW050 SCT130 BKN160 BKN230 26/21 A2987 RMK AO2A SLP116 T02570209